Etusivu
METAR-TAF:

METAR-TAF

Lentoasemat :

Fort Stockton-Pecos County Airport

Fort Stockton, Texas, Yhdysvallat

Leveyspiiri: 30-54-43N, Pituuspiiri: 102-55-00W, korkeus merenpinnasta: 917 m

METAR: puuttuu

Aika: 04:45 (09:45 UTC)

Sääennuste

Tämä raportti tehtiin 4 tuntia ja 25 minuuttia sitten, kello 05.20 UTC
Ennuste voimassa 13. päivästä klo 06 UTC - 14. päivään klo 06 UTC
Tuuli 8 kn kaakosta
Näkyvyys: 10 km
selkeää
From 13. päivästä klo 1800 UTC
Tuuli 16 kn kaakosta puuskistuen 23 kn:hen
Näkyvyys: 10 km
Hajanaisia pilviä 7000 ft:n korkeudessa

TAF: KFST 130520Z 1306/1406 14008KT P6SM SKC FM131800 13016G23KT P6SM SCT070

Säähavainnot ja -ennusteet yli 4000 lentoasemalta (METAR- ja TAF-raportit).

Käytössä olevat sääasemat on merkitty karttaan keltaisilla ja punaisilla pisteillä.

Aseta hiiri pisteen päälle nähdäksesi sääaseman nimen.

Klikkaa sitten nähdäksesi säähavainnot ja -ennusteet.

Kartan vaihtaminen: klikkaa mustalla rastilla varustettuja vihreitä pisteitä, niin voit zoomata sisään; viivalla varustettua vihreää pistettä, niin voit zoomata ulos tai vihreitä nuolia, niin pääset viereisille kartoille.


METAR-TAF: